Pagrindinis puslapis
METAR-TAF:

METAR-TAF

Oro uostai :

Karalienės Alijos tarptautinis oro uostas

Amanas-Queen Alia, Jordanija

platuma: 31-40N, ilguma: 035-58E, Aukštis: 721 m

Dabartinis oras

Ataskaita buvo paskelbta 25 minutes, ne 13:00 UTC
Vėjas 13 kt iš Vakarų/Šiaurės Vakarų
Temperatūra 27°C
Drėgmė 13%
Slėgis 1011 hPa
Matomumas: 5000 m
migla,

METAR: OJAI 201300Z 30013KT 5000 HZ NSC 27/M04 Q1011 NOSIG

Laikas: 16:25 (13:25 UTC)

Prognozė

Ataskaita buvo paskelbta 2 valandos ir 25 minutes, ne 11:00 UTC
Prognozė galioja nuo 20 metu 12 UTC su 21 metu 18 UTC
Vėjas 10 kt iš Vakarų/Šiaurės Vakarų
Matomumas: 5000 m
migla
Tikimybė 40% :
Laikinai
nuo 20 metu 12 UTC su 20 metu 18 UTC
Vėjas 20 kt iš Vakarų/Šiaurės Vakarų
Matomumas: 3000 m
Dulkes pustymas,

TAF: OJAI 201100Z 2012/2118 30010KT 5000 HZ NSC PROB40 TEMPO 2012/2018 30020KT 3000 BLDU

Orai ataskaitas ir orų prognozės (METAR, TAF).

turimą stotys yra geltonos ir raudonos taškus žemėlapyje.

Perkelti pele per norėdami pamatyti stoties vardą.

Tada spustelėkite, norėdami matyti oro stebėjimo ir prognozės.

Norėdami pakeisti žemėlapį: spustelėkite ant žalios mygtukų su juodo kryžiaus žemyn,; žalią mygtuką su brūkšneliu, jei norite nutolinti; arba žalių rodyklių gretimoms žemėlapius.


METAR-TAF: